Irving North's Hourly Summary for Thursday, May 10, 2018
Hour Temp
(f)
RH
(%)
Solar Rad.
(MJ/m2)
Rainfall
(in)
Wind
(mph)
5/10/2018 12:00 AM 75 46 0 0 6.32
5/10/2018 1:00 AM 74 45 0 0 7.74
5/10/2018 2:00 AM 72 49 0 0 7.55
5/10/2018 3:00 AM 70 53 0 0 7.2
5/10/2018 4:00 AM 69 57 0 0 7.06
5/10/2018 5:00 AM 67 64 0 0 6.17
5/10/2018 6:00 AM 66 72 0.02 0 5.7
5/10/2018 7:00 AM 67 78 0.45 0 7.2
5/10/2018 8:00 AM 70 70 1.13 0 8.77
5/10/2018 9:00 AM 73 61 1.85 0 7.62
5/10/2018 10:00 AM 76 50 2.55 0 6.62
5/10/2018 11:00 AM 78 48 3.02 0 7.47
5/10/2018 12:00 PM 80 42 3.32 0 9.95
5/10/2018 1:00 PM 82 39 3.4 0 10.02
5/10/2018 2:00 PM 83 39 3.24 0 9.11
5/10/2018 3:00 PM 84 37 2.99 0 10.09
5/10/2018 4:00 PM 85 34 2.42 0 9.82
5/10/2018 5:00 PM 84 38 1.62 0 10.66
5/10/2018 6:00 PM 84 39 0.45 0 10.11
5/10/2018 7:00 PM 82 40 0.29 0 9.32
5/10/2018 8:00 PM 80 42 0.01 0 8.23
5/10/2018 9:00 PM 79 46 0 0 7.37
5/10/2018 10:00 PM 77 49 0 0 6.86
5/10/2018 11:00 PM 77 53 0 0 7.62
Data Summary 76 49 26.76 0.00 8.11